createdAt,value
2023-04-17T00:03:34.656Z,14.10
2023-04-17T00:08:36.497Z,13.55
2023-04-17T00:13:37.917Z,13.80
2023-04-17T00:18:39.785Z,13.88
2023-04-17T00:23:41.515Z,13.32
2023-04-17T00:28:43.089Z,11.80
2023-04-17T00:33:46.265Z,11.75
2023-04-17T00:38:47.914Z,12.63
2023-04-17T00:43:49.387Z,10.85
2023-04-17T00:48:51.114Z,11.18
2023-04-17T00:53:52.708Z,12.75
2023-04-17T00:58:54.766Z,12.18
2023-04-17T01:03:56.595Z,11.82
2023-04-17T01:08:58.260Z,11.55
2023-04-17T01:13:59.796Z,11.23
2023-04-17T01:19:01.375Z,10.95
2023-04-17T01:24:03.468Z,11.07
2023-04-17T01:29:04.958Z,12.38
2023-04-17T01:34:06.409Z,11.50
2023-04-17T01:39:07.946Z,11.90
2023-04-17T01:44:09.422Z,11.45
2023-04-17T01:49:11.774Z,10.57
2023-04-17T01:54:15.570Z,10.82
2023-04-17T01:59:17.235Z,12.18
2023-04-17T02:04:19.041Z,12.63
2023-04-17T02:09:20.540Z,11.65
2023-04-17T02:14:22.036Z,10.73
2023-04-17T02:19:23.659Z,10.93
2023-04-17T02:24:25.381Z,11.65
2023-04-17T02:29:26.868Z,11.68
2023-04-17T02:34:28.362Z,11.85
2023-04-17T02:39:31.264Z,11.60
2023-04-17T02:44:32.712Z,10.75
2023-04-17T02:49:34.211Z,11.48
2023-04-17T02:54:35.728Z,12.60
2023-04-17T02:59:37.221Z,10.73
2023-04-17T03:04:39.959Z,11.02
2023-04-17T03:09:43.135Z,11.90
2023-04-17T03:14:44.598Z,11.82
2023-04-17T03:19:46.226Z,12.35
2023-04-17T03:24:47.764Z,12.40
2023-04-17T03:29:49.167Z,13.00
2023-04-17T03:34:50.727Z,12.50
2023-04-17T03:39:52.259Z,13.80
2023-04-17T03:44:53.707Z,14.93
2023-04-17T03:49:55.138Z,14.15
2023-04-17T03:54:57.006Z,14.60
2023-04-17T03:59:58.509Z,14.40
2023-04-17T04:05:00.075Z,14.85
2023-04-17T04:10:01.641Z,13.95
2023-04-17T04:15:03.174Z,14.00
2023-04-17T04:20:05.354Z,14.73
2023-04-17T04:25:07.084Z,14.55
2023-04-17T04:30:10.146Z,14.02
2023-04-17T04:35:12.083Z,15.05
2023-04-17T04:40:16.436Z,14.27
2023-04-17T04:45:18.905Z,13.70
2023-04-17T04:50:20.745Z,13.60
2023-04-17T04:55:22.281Z,13.85
2023-04-17T05:00:23.938Z,14.07
2023-04-17T05:05:25.619Z,13.85
2023-04-17T05:10:27.217Z,13.75
2023-04-17T05:15:28.750Z,13.38
2023-04-17T05:20:30.875Z,13.10
2023-04-17T05:25:32.496Z,14.45
2023-04-17T05:30:34.112Z,14.80
2023-04-17T05:35:35.800Z,15.10
2023-04-17T05:40:37.360Z,14.38
2023-04-17T05:45:39.181Z,13.75
2023-04-17T05:50:40.726Z,13.95
2023-04-17T05:55:42.267Z,14.50
2023-04-17T06:00:44.002Z,14.73
2023-04-17T06:05:47.246Z,14.20
2023-04-17T06:10:50.194Z,14.30
2023-04-17T06:15:51.653Z,12.77
2023-04-17T06:20:53.487Z,13.32
2023-04-17T06:25:56.007Z,13.10
2023-04-17T06:30:57.508Z,12.38
2023-04-17T06:35:59.079Z,12.68
2023-04-17T06:41:00.629Z,11.70
2023-04-17T06:46:02.111Z,11.30
2023-04-17T06:51:04.083Z,11.15
2023-04-17T06:56:05.910Z,10.57
2023-04-17T07:01:07.355Z,10.38
2023-04-17T07:06:09.227Z,9.82
2023-04-17T07:11:10.911Z,10.20
2023-04-17T07:16:12.391Z,10.90
2023-04-17T07:21:13.980Z,10.55
2023-04-17T07:26:15.465Z,12.40
2023-04-17T07:31:16.955Z,10.60
2023-04-17T07:36:18.818Z,12.30
2023-04-17T07:41:20.457Z,11.07
2023-04-17T07:46:22.025Z,10.20
2023-04-17T07:51:23.718Z,10.32
2023-04-17T07:56:26.207Z,11.50
2023-04-17T08:01:27.831Z,10.43
2023-04-17T08:06:29.292Z,10.80
2023-04-17T08:11:30.861Z,10.20
2023-04-17T08:16:32.667Z,10.75
2023-04-17T08:21:34.277Z,10.85
2023-04-17T08:26:35.935Z,10.70
2023-04-17T08:31:37.354Z,12.00
2023-04-17T08:36:40.696Z,11.57
2023-04-17T08:41:50.526Z,12.27
2023-04-17T08:51:53.506Z,12.38
2023-04-17T08:56:55.039Z,11.38
2023-04-17T09:02:00.452Z,13.02
2023-04-17T09:07:02.121Z,10.82
2023-04-17T09:12:12.934Z,11.00
2023-04-17T09:17:17.418Z,10.68
2023-04-17T09:22:20.058Z,10.38
2023-04-17T09:27:25.453Z,10.70
2023-04-17T09:32:27.379Z,11.80
2023-04-17T09:37:48.706Z,11.35
2023-04-17T09:42:54.112Z,11.95
2023-04-17T09:47:58.471Z,10.82
2023-04-17T09:53:00.643Z,11.95
2023-04-17T09:58:03.630Z,11.98
2023-04-17T10:03:07.156Z,12.73
2023-04-17T10:08:08.990Z,15.98
2023-04-17T10:13:11.550Z,12.57
2023-04-17T10:18:20.932Z,13.27
2023-04-17T10:23:35.261Z,12.77
2023-04-17T10:28:49.408Z,13.55
2023-04-17T10:33:57.115Z,14.50
2023-04-17T10:39:12.267Z,13.30
2023-04-17T10:44:13.836Z,13.52
2023-04-17T10:49:15.445Z,13.02
2023-04-17T10:54:17.069Z,12.60
2023-04-17T10:59:23.459Z,13.30
2023-04-17T11:04:28.874Z,13.80
2023-04-17T11:09:31.033Z,14.35
2023-04-17T11:14:32.621Z,13.80
2023-04-17T11:19:34.247Z,12.98
2023-04-17T11:24:35.948Z,13.40
2023-04-17T11:29:37.485Z,15.40
2023-04-17T11:34:39.057Z,14.60
2023-04-17T11:39:42.175Z,13.93
2023-04-17T11:44:44.581Z,14.15
2023-04-17T11:49:47.057Z,14.95
2023-04-17T11:54:57.096Z,13.88
2023-04-17T11:59:58.589Z,14.15
2023-04-17T12:05:13.077Z,14.10
2023-04-17T12:10:14.676Z,14.40
2023-04-17T12:15:16.323Z,14.82
2023-04-17T12:20:17.974Z,14.00
2023-04-17T12:25:19.567Z,13.82
2023-04-17T12:30:21.052Z,12.73
2023-04-17T12:35:23.151Z,13.35
2023-04-17T12:40:25.340Z,13.07
2023-04-17T12:45:26.952Z,12.95
2023-04-17T12:50:28.527Z,12.75
2023-04-17T12:55:30.041Z,12.02
2023-04-17T13:00:32.968Z,14.02
2023-04-17T13:05:34.549Z,17.35
2023-04-17T13:10:36.063Z,14.13
2023-04-17T13:15:37.541Z,12.50
2023-04-17T13:20:39.092Z,11.23
2023-04-17T13:25:40.601Z,12.63
2023-04-17T13:30:42.215Z,12.05
2023-04-17T13:35:43.802Z,12.20
2023-04-17T13:40:45.337Z,13.80
2023-04-17T13:45:47.007Z,12.98
2023-04-17T13:50:48.637Z,11.68
2023-04-17T13:55:50.897Z,10.95
2023-04-17T14:00:52.403Z,11.07
2023-04-17T14:05:54.879Z,11.00
2023-04-17T14:10:56.343Z,10.98
2023-04-17T14:15:57.920Z,11.65
2023-04-17T14:20:59.440Z,11.13
2023-04-17T14:26:00.907Z,11.40
2023-04-17T14:31:02.488Z,11.15
2023-04-17T14:36:05.806Z,11.77
2023-04-17T14:41:08.220Z,11.65
2023-04-17T14:46:09.811Z,12.35
2023-04-17T14:51:14.317Z,11.32
2023-04-17T14:56:16.068Z,12.52
2023-04-17T15:01:17.798Z,11.85
2023-04-17T15:06:20.069Z,12.10
2023-04-17T15:11:21.539Z,11.07
2023-04-17T15:16:23.048Z,11.48
2023-04-17T15:21:24.653Z,12.68
2023-04-17T15:26:27.505Z,10.32
2023-04-17T15:31:29.191Z,10.90
2023-04-17T15:36:34.436Z,11.90
2023-04-17T15:41:39.388Z,12.55
2023-04-17T15:46:41.132Z,11.60
2023-04-17T15:51:42.845Z,12.40
2023-04-17T15:56:44.418Z,11.70
2023-04-17T16:01:46.217Z,12.30
2023-04-17T16:06:47.770Z,11.82
2023-04-17T16:11:49.258Z,13.25
2023-04-17T16:16:50.849Z,12.77
2023-04-17T16:21:52.523Z,13.18
2023-04-17T16:26:58.382Z,13.32
2023-04-17T16:32:00.272Z,12.90
2023-04-17T16:37:03.415Z,13.98
2023-04-17T16:42:04.915Z,14.18
2023-04-17T16:47:13.587Z,13.85
2023-04-17T16:57:17.877Z,13.90
2023-04-17T17:02:19.569Z,13.52
2023-04-17T17:07:21.092Z,13.70
2023-04-17T17:12:22.654Z,14.00
2023-04-17T17:17:24.220Z,12.50
2023-04-17T17:22:25.865Z,12.20
2023-04-17T17:27:27.298Z,13.20
2023-04-17T17:32:28.861Z,12.98
2023-04-17T17:37:30.625Z,13.57
2023-04-17T17:42:32.170Z,12.85
2023-04-17T17:47:33.956Z,13.40
2023-04-17T17:52:35.687Z,13.52
2023-04-17T17:57:48.280Z,13.85
2023-04-17T18:02:51.174Z,13.40
2023-04-17T18:07:53.058Z,12.15
2023-04-17T18:12:54.827Z,13.18
2023-04-17T18:17:56.519Z,12.68
2023-04-17T18:22:58.188Z,12.50
2023-04-17T18:27:59.611Z,11.43
2023-04-17T18:33:01.185Z,10.52
2023-04-17T18:38:02.911Z,10.95
2023-04-17T18:43:05.832Z,9.50
2023-04-17T18:48:07.605Z,10.48
2023-04-17T18:53:09.048Z,10.45
2023-04-17T18:58:10.649Z,9.43
2023-04-17T19:03:12.188Z,10.48
2023-04-17T19:08:15.091Z,10.15
2023-04-17T19:13:16.616Z,10.82
2023-04-17T19:18:18.132Z,11.23
2023-04-17T19:23:19.745Z,10.63
2023-04-17T19:28:21.486Z,9.13
2023-04-17T19:33:23.090Z,10.18
2023-04-17T19:38:26.084Z,9.45
2023-04-17T19:43:27.569Z,9.95
2023-04-17T19:48:29.023Z,9.82
2023-04-17T19:53:31.293Z,10.13
2023-04-17T19:58:32.872Z,10.15
2023-04-17T20:03:35.695Z,9.32
2023-04-17T20:08:37.335Z,9.60
2023-04-17T20:13:39.105Z,9.57
2023-04-17T20:18:41.813Z,9.73
2023-04-17T20:23:43.783Z,9.50
2023-04-17T20:28:45.381Z,10.70
2023-04-17T20:33:46.967Z,9.88
2023-04-17T20:38:49.035Z,10.25
2023-04-17T20:43:58.327Z,9.88
2023-04-17T20:48:59.864Z,9.75
2023-04-17T20:54:01.374Z,9.55
2023-04-17T20:59:02.844Z,9.55
2023-04-17T21:04:04.872Z,9.57
2023-04-17T21:09:06.476Z,10.15
2023-04-17T21:14:08.164Z,9.73
2023-04-17T21:19:09.803Z,9.38
2023-04-17T21:24:11.549Z,10.45
2023-04-17T21:29:14.739Z,9.68
2023-04-17T21:34:16.251Z,10.63
2023-04-17T21:39:17.736Z,9.73
2023-04-17T21:44:19.207Z,9.77
2023-04-17T21:49:21.113Z,9.40
2023-04-17T21:54:24.061Z,9.75
2023-04-17T21:59:25.542Z,9.55
2023-04-17T22:04:27.563Z,9.85
2023-04-17T22:09:29.282Z,9.77
2023-04-17T22:14:30.849Z,9.38
2023-04-17T22:19:32.342Z,9.98
2023-04-17T22:25:11.617Z,9.82
2023-04-17T22:30:31.470Z,8.55
2023-04-17T22:35:51.647Z,8.52
2023-04-17T22:45:54.521Z,9.65
2023-04-17T22:50:56.679Z,8.75
2023-04-17T22:56:02.391Z,9.30
2023-04-17T23:01:04.054Z,9.32
2023-04-17T23:06:05.610Z,8.55
2023-04-17T23:11:07.716Z,8.65
2023-04-17T23:16:09.354Z,8.95
2023-04-17T23:21:11.064Z,8.20
2023-04-17T23:26:14.789Z,8.90
2023-04-17T23:31:16.484Z,8.95
2023-04-17T23:36:17.961Z,8.40
2023-04-17T23:41:20.135Z,8.15
2023-04-17T23:46:21.929Z,7.70
2023-04-17T23:51:23.446Z,7.47
2023-04-17T23:56:24.929Z,6.75
